createdAt,value
2023-01-24T00:00:25.176Z,3.55
2023-01-24T00:02:53.160Z,3.53
2023-01-24T00:05:21.255Z,3.53
2023-01-24T00:08:10.792Z,3.51
2023-01-24T00:11:27.399Z,3.46
2023-01-24T00:14:25.892Z,3.48
2023-01-24T00:17:55.313Z,3.47
2023-01-24T00:20:27.601Z,3.44
2023-01-24T00:22:58.412Z,3.43
2023-01-24T00:25:25.459Z,3.39
2023-01-24T00:27:52.668Z,3.38
2023-01-24T00:30:43.261Z,3.40
2023-01-24T00:33:34.727Z,3.41
2023-01-24T00:36:29.634Z,3.44
2023-01-24T00:39:08.055Z,3.50
2023-01-24T00:42:10.573Z,3.52
2023-01-24T00:44:38.883Z,3.52
2023-01-24T00:47:08.970Z,3.51
2023-01-24T00:49:38.743Z,3.52
2023-01-24T00:52:31.142Z,3.55
2023-01-24T00:54:59.252Z,3.55
2023-01-24T00:57:26.569Z,3.54
2023-01-24T00:59:55.359Z,3.54
2023-01-24T01:02:25.302Z,3.52
2023-01-24T01:04:53.678Z,3.50
2023-01-24T01:07:24.277Z,3.52
2023-01-24T01:09:51.467Z,3.54
2023-01-24T01:12:19.292Z,3.57
2023-01-24T01:14:47.251Z,3.54
2023-01-24T01:17:14.856Z,3.54
2023-01-24T01:19:45.998Z,3.53
2023-01-24T01:22:13.371Z,3.48
2023-01-24T01:24:41.630Z,3.49
2023-01-24T01:27:12.590Z,3.45
2023-01-24T01:29:40.354Z,3.50
2023-01-24T01:32:28.943Z,3.52
2023-01-24T01:34:56.965Z,3.53
2023-01-24T01:37:28.163Z,3.52
2023-01-24T01:39:57.000Z,3.51
2023-01-24T01:42:56.698Z,3.50
2023-01-24T01:46:11.167Z,3.52
2023-01-24T01:48:47.755Z,3.53
2023-01-24T01:51:18.935Z,3.53
2023-01-24T01:53:50.946Z,3.56
2023-01-24T01:56:47.903Z,3.55
2023-01-24T01:59:17.353Z,3.53
2023-01-24T02:01:47.043Z,3.49
2023-01-24T02:04:46.203Z,3.48
2023-01-24T02:07:39.217Z,3.47
2023-01-24T02:10:07.542Z,3.50
2023-01-24T02:12:47.089Z,3.50
2023-01-24T02:15:35.819Z,3.50
2023-01-24T02:18:07.149Z,3.51
2023-01-24T02:20:42.799Z,3.52
2023-01-24T02:23:26.017Z,3.55
2023-01-24T02:26:16.989Z,3.54
2023-01-24T02:29:11.758Z,3.48
2023-01-24T02:32:03.481Z,3.46
2023-01-24T02:34:32.602Z,3.49
2023-01-24T02:37:05.300Z,3.52
2023-01-24T02:40:03.817Z,3.53
2023-01-24T02:42:35.536Z,3.49
2023-01-24T02:45:43.487Z,3.51
2023-01-24T02:48:10.627Z,3.53
2023-01-24T02:50:55.963Z,3.56
2023-01-24T02:53:34.235Z,3.60
2023-01-24T02:56:22.590Z,3.60
2023-01-24T02:58:52.083Z,3.58
2023-01-24T03:01:21.226Z,3.58
2023-01-24T03:03:54.049Z,3.54
2023-01-24T03:07:31.499Z,3.53
2023-01-24T03:10:00.066Z,3.49
2023-01-24T03:12:48.113Z,3.48
2023-01-24T03:15:33.851Z,3.51
2023-01-24T03:18:46.816Z,3.55
2023-01-24T03:21:32.821Z,3.48
2023-01-24T03:24:18.881Z,3.48
2023-01-24T03:27:09.930Z,3.51
2023-01-24T03:29:56.062Z,3.54
2023-01-24T03:32:43.118Z,3.59
2023-01-24T03:35:58.151Z,3.60
2023-01-24T03:38:47.865Z,3.58
2023-01-24T03:41:18.059Z,3.56
2023-01-24T03:43:47.763Z,3.56
2023-01-24T03:46:17.156Z,3.58
2023-01-24T03:48:55.909Z,3.59
2023-01-24T03:52:03.239Z,3.62
2023-01-24T03:54:34.413Z,3.62
2023-01-24T03:57:04.990Z,3.62
2023-01-24T03:59:33.391Z,3.61
2023-01-24T04:02:02.130Z,3.62
2023-01-24T04:05:12.065Z,3.59
2023-01-24T04:07:40.419Z,3.62
2023-01-24T04:10:10.878Z,3.64
2023-01-24T04:12:43.014Z,3.64
2023-01-24T04:15:17.806Z,3.63
2023-01-24T04:18:05.911Z,3.58
2023-01-24T04:20:36.226Z,3.54
2023-01-24T04:23:08.303Z,3.55
2023-01-24T04:25:36.056Z,3.56
2023-01-24T04:28:04.398Z,3.54
2023-01-24T04:30:36.006Z,3.56
2023-01-24T04:33:35.414Z,3.57
2023-01-24T04:36:29.638Z,3.57
2023-01-24T04:39:41.268Z,3.55
2023-01-24T04:42:30.393Z,3.58
2023-01-24T04:44:59.941Z,3.62
2023-01-24T04:47:27.452Z,3.64
2023-01-24T04:49:56.372Z,3.64
2023-01-24T04:52:27.210Z,3.65
2023-01-24T04:55:03.808Z,3.65
2023-01-24T04:57:36.594Z,3.67
2023-01-24T05:00:06.828Z,3.69
2023-01-24T05:02:37.124Z,3.67
2023-01-24T05:05:07.322Z,3.67
2023-01-24T05:07:40.157Z,3.68
2023-01-24T05:10:15.237Z,3.67
2023-01-24T05:12:45.092Z,3.67
2023-01-24T05:15:39.350Z,3.63
2023-01-24T05:18:13.278Z,3.62
2023-01-24T05:20:41.912Z,3.63
2023-01-24T05:26:31.022Z,3.71
2023-01-24T05:29:06.861Z,3.74
2023-01-24T05:31:54.794Z,3.77
2023-01-24T05:34:23.365Z,3.79
2023-01-24T05:42:14.449Z,3.75
2023-01-24T05:44:47.348Z,3.73
